createdAt,value
2022-07-25T00:00:06.018Z,7.57
2022-07-25T00:03:09.435Z,8.03
2022-07-25T00:06:13.625Z,8.60
2022-07-25T00:09:19.718Z,6.72
2022-07-25T00:12:22.186Z,6.90
2022-07-25T00:15:24.441Z,7.65
2022-07-25T00:18:26.907Z,6.90
2022-07-25T00:21:29.017Z,7.37
2022-07-25T00:24:31.068Z,6.57
2022-07-25T00:27:32.984Z,5.72
2022-07-25T00:30:35.019Z,8.52
2022-07-25T00:33:36.987Z,6.00
2022-07-25T00:36:39.090Z,5.87
2022-07-25T00:39:41.024Z,8.02
2022-07-25T00:42:43.126Z,5.68
2022-07-25T00:45:45.290Z,7.05
2022-07-25T00:48:49.830Z,6.20
2022-07-25T00:51:53.315Z,7.57
2022-07-25T00:54:56.950Z,6.18
2022-07-25T00:57:58.854Z,7.95
2022-07-25T01:01:01.941Z,5.72
2022-07-25T01:04:05.016Z,7.33
2022-07-25T01:07:07.273Z,6.30
2022-07-25T01:10:10.049Z,6.95
2022-07-25T01:13:12.552Z,6.70
2022-07-25T01:16:14.976Z,6.55
2022-07-25T01:19:16.970Z,8.43
2022-07-25T01:22:18.899Z,6.80
2022-07-25T01:25:21.581Z,6.03
2022-07-25T01:28:23.783Z,5.70
2022-07-25T01:31:25.869Z,6.32
2022-07-25T01:34:27.787Z,7.17
2022-07-25T01:37:29.857Z,6.30
2022-07-25T01:40:31.945Z,6.03
2022-07-25T01:43:33.905Z,7.90
2022-07-25T01:46:35.930Z,5.78
2022-07-25T01:49:38.087Z,6.30
2022-07-25T01:52:40.444Z,6.20
2022-07-25T01:55:44.516Z,6.72
2022-07-25T01:58:46.456Z,7.55
2022-07-25T02:01:48.566Z,6.25
2022-07-25T02:04:50.578Z,7.10
2022-07-25T02:07:52.724Z,6.33
2022-07-25T02:10:55.081Z,6.10
2022-07-25T02:13:57.137Z,6.40
2022-07-25T02:16:59.290Z,8.52
2022-07-25T02:20:02.379Z,7.17
2022-07-25T02:23:06.257Z,6.07
2022-07-25T02:26:08.191Z,6.97
2022-07-25T02:29:11.564Z,6.70
2022-07-25T02:32:13.651Z,7.20
2022-07-25T02:35:15.607Z,7.13
2022-07-25T02:38:20.312Z,8.80
2022-07-25T02:41:22.314Z,6.25
2022-07-25T02:44:24.397Z,9.70
2022-07-25T02:47:26.513Z,6.82
2022-07-25T02:50:29.068Z,6.73
2022-07-25T02:53:55.503Z,6.47
2022-07-25T02:56:52.941Z,6.75
2022-07-25T02:59:54.966Z,7.10
2022-07-25T03:02:58.349Z,7.63
2022-07-25T03:06:00.291Z,5.77
2022-07-25T03:09:02.227Z,6.20
2022-07-25T03:12:04.724Z,6.93
2022-07-25T03:15:08.058Z,6.75
2022-07-25T03:18:10.101Z,8.13
2022-07-25T03:21:15.899Z,6.40
2022-07-25T03:24:19.059Z,8.77
2022-07-25T03:27:20.973Z,6.32
2022-07-25T03:30:23.550Z,7.00
2022-07-25T03:33:25.612Z,6.10
2022-07-25T03:36:27.532Z,7.73
2022-07-25T03:39:29.726Z,7.00
2022-07-25T03:42:35.354Z,6.63
2022-07-25T03:45:37.730Z,7.55
2022-07-25T03:48:40.261Z,7.15
2022-07-25T03:51:42.603Z,9.03
2022-07-25T03:54:44.651Z,7.23
2022-07-25T03:57:46.643Z,7.63
2022-07-25T04:00:48.990Z,6.95
2022-07-25T04:03:51.067Z,7.82
2022-07-25T04:06:53.025Z,8.57
2022-07-25T04:09:55.083Z,6.73
2022-07-25T04:12:57.262Z,6.53
2022-07-25T04:15:59.219Z,7.60
2022-07-25T04:19:01.816Z,7.22
2022-07-25T04:22:03.906Z,6.43
2022-07-25T04:25:06.506Z,7.10
2022-07-25T04:28:08.731Z,6.50
2022-07-25T04:31:10.754Z,6.53
2022-07-25T04:34:12.679Z,6.30
2022-07-25T04:37:14.675Z,7.33
2022-07-25T04:40:17.007Z,6.63
2022-07-25T04:43:20.651Z,7.13
2022-07-25T04:46:23.456Z,7.43
2022-07-25T04:49:25.460Z,9.75
2022-07-25T04:52:27.745Z,8.20
2022-07-25T04:55:29.768Z,6.80
2022-07-25T04:58:33.438Z,7.80
2022-07-25T05:01:35.551Z,7.97
2022-07-25T05:04:44.764Z,6.82
2022-07-25T05:07:47.212Z,8.43
2022-07-25T05:10:49.259Z,8.53
2022-07-25T05:13:51.969Z,7.50
2022-07-25T05:16:54.126Z,9.50
2022-07-25T05:19:58.125Z,8.02
2022-07-25T05:23:00.139Z,7.30
2022-07-25T05:26:02.377Z,6.80
2022-07-25T05:29:04.358Z,9.60
2022-07-25T05:32:06.463Z,8.98
2022-07-25T05:35:09.437Z,7.68
2022-07-25T05:38:11.455Z,8.00
2022-07-25T05:41:13.507Z,7.30
2022-07-25T05:44:15.461Z,7.10
2022-07-25T05:47:17.551Z,7.55
2022-07-25T05:50:19.689Z,7.22
2022-07-25T05:53:21.920Z,7.63
2022-07-25T05:56:23.951Z,8.00
2022-07-25T05:59:25.946Z,6.20
2022-07-25T06:02:27.992Z,7.72
2022-07-25T06:05:30.086Z,9.85
2022-07-25T06:08:32.646Z,6.20
2022-07-25T06:11:35.565Z,7.80
2022-07-25T06:14:53.510Z,7.65
2022-07-25T06:17:55.484Z,6.78
2022-07-25T06:20:57.516Z,7.28
2022-07-25T06:23:59.621Z,7.20
2022-07-25T06:27:01.944Z,7.17
2022-07-25T06:30:06.609Z,9.15
2022-07-25T06:33:13.657Z,7.53
2022-07-25T06:36:15.709Z,9.35
2022-07-25T06:39:17.628Z,9.03
2022-07-25T06:42:19.870Z,7.50
2022-07-25T06:45:22.277Z,9.07
2022-07-25T06:48:24.470Z,6.97
2022-07-25T06:51:26.596Z,9.50
2022-07-25T06:54:28.596Z,5.67
2022-07-25T06:57:31.268Z,6.93
2022-07-25T07:00:33.540Z,6.20
2022-07-25T07:03:38.417Z,7.63
2022-07-25T07:06:40.738Z,9.77
2022-07-25T07:09:43.800Z,8.93
2022-07-25T07:12:46.332Z,6.80
2022-07-25T07:15:50.297Z,8.48
2022-07-25T07:18:52.459Z,9.73
2022-07-25T07:21:54.461Z,6.97
2022-07-25T07:24:57.773Z,7.33
2022-07-25T07:27:59.886Z,7.00
2022-07-25T07:31:17.862Z,5.53
2022-07-25T07:34:20.538Z,6.32
2022-07-25T07:37:22.761Z,6.45
2022-07-25T07:40:26.816Z,7.33
2022-07-25T07:43:31.770Z,7.40
2022-07-25T07:46:33.962Z,6.88
2022-07-25T07:49:36.929Z,5.95
2022-07-25T07:52:39.263Z,7.80
2022-07-25T07:55:44.181Z,6.57
2022-07-25T07:58:46.702Z,9.03
2022-07-25T08:01:48.755Z,6.57
2022-07-25T08:04:50.804Z,6.55
2022-07-25T08:07:54.144Z,7.80
2022-07-25T08:10:58.960Z,7.10
2022-07-25T08:14:01.806Z,5.00
2022-07-25T08:17:03.724Z,6.10
2022-07-25T08:20:27.958Z,6.05
2022-07-25T08:23:31.968Z,8.55
2022-07-25T08:26:34.155Z,6.80
2022-07-25T08:29:36.115Z,7.67
2022-07-25T08:32:54.011Z,5.55
2022-07-25T08:35:56.449Z,6.40
2022-07-25T08:38:58.506Z,6.28
2022-07-25T08:42:01.253Z,6.22
2022-07-25T08:45:05.717Z,6.90
2022-07-25T08:48:08.362Z,6.40
2022-07-25T08:51:11.052Z,6.28
2022-07-25T08:54:13.096Z,6.43
2022-07-25T08:57:16.496Z,6.60
2022-07-25T09:00:26.886Z,7.33
2022-07-25T09:03:29.059Z,7.18
2022-07-25T09:06:31.207Z,6.22
2022-07-25T09:09:35.081Z,8.15
2022-07-25T09:12:37.061Z,6.80
2022-07-25T09:15:44.766Z,5.40
2022-07-25T09:18:46.936Z,7.00
2022-07-25T09:22:10.356Z,6.70
2022-07-25T09:25:29.854Z,7.22
2022-07-25T09:28:32.278Z,7.50
2022-07-25T09:31:35.184Z,7.17
2022-07-25T09:34:41.852Z,7.47
2022-07-25T09:37:43.924Z,7.00
2022-07-25T09:41:01.402Z,7.60
2022-07-25T09:44:04.804Z,7.07
2022-07-25T09:47:15.449Z,6.63
2022-07-25T09:50:18.733Z,6.40
2022-07-25T09:53:21.214Z,6.57
2022-07-25T09:56:23.404Z,5.97
2022-07-25T09:59:25.429Z,6.67
2022-07-25T10:02:40.736Z,7.17
2022-07-25T10:05:58.025Z,7.10
2022-07-25T10:09:00.279Z,7.30
2022-07-25T10:12:10.565Z,6.13
2022-07-25T10:15:14.098Z,8.13
2022-07-25T10:18:21.246Z,7.80
2022-07-25T10:21:27.199Z,6.43
2022-07-25T10:24:38.153Z,9.35
2022-07-25T10:27:43.833Z,9.60
2022-07-25T10:30:46.649Z,7.10
2022-07-25T10:33:52.050Z,6.83
2022-07-25T10:36:57.407Z,6.32
2022-07-25T10:39:59.532Z,6.20
2022-07-25T10:43:22.590Z,9.25
2022-07-25T10:46:27.987Z,5.43
2022-07-25T10:49:36.223Z,6.17
2022-07-25T10:52:42.500Z,6.60
2022-07-25T10:56:04.883Z,7.18
2022-07-25T10:59:07.960Z,6.70
2022-07-25T11:02:17.428Z,5.53
2022-07-25T11:05:19.791Z,6.70
2022-07-25T11:08:34.437Z,6.60
2022-07-25T11:11:40.422Z,5.75
2022-07-25T11:14:43.323Z,6.43
2022-07-25T11:17:55.658Z,6.97
2022-07-25T11:21:06.249Z,6.77
2022-07-25T11:24:08.731Z,6.13
2022-07-25T11:27:27.697Z,6.25
2022-07-25T11:30:30.885Z,7.95
2022-07-25T11:33:33.500Z,5.70
2022-07-25T11:36:38.688Z,8.13
2022-07-25T11:39:43.097Z,8.07
2022-07-25T11:42:48.498Z,5.38
2022-07-25T11:46:02.576Z,6.35
2022-07-25T11:49:06.412Z,5.80
2022-07-25T11:52:22.079Z,6.50
2022-07-25T11:55:29.499Z,6.18
2022-07-25T11:58:31.569Z,8.02
2022-07-25T12:01:36.179Z,6.07
2022-07-25T12:04:38.170Z,7.07
2022-07-25T12:07:50.480Z,6.93
2022-07-25T12:10:52.494Z,5.93
2022-07-25T12:14:03.510Z,5.72
2022-07-25T12:17:05.544Z,9.05
2022-07-25T12:20:21.834Z,6.67
2022-07-25T12:23:23.963Z,6.80
2022-07-25T12:26:25.992Z,7.75
2022-07-25T12:29:28.149Z,6.10
2022-07-25T12:32:30.646Z,5.53
2022-07-25T12:35:33.112Z,7.47
2022-07-25T12:38:35.261Z,6.23
2022-07-25T12:41:37.299Z,6.65
2022-07-25T12:44:39.306Z,6.03
2022-07-25T12:47:45.231Z,8.55
2022-07-25T12:50:47.299Z,5.87
2022-07-25T12:53:49.420Z,5.50
2022-07-25T12:56:51.762Z,8.55
2022-07-25T12:59:53.899Z,5.97
2022-07-25T13:02:56.246Z,6.47
2022-07-25T13:05:58.747Z,7.20
2022-07-25T13:09:00.979Z,6.77
2022-07-25T13:12:02.977Z,5.85
2022-07-25T13:15:05.411Z,6.40
2022-07-25T13:18:07.581Z,5.75
2022-07-25T13:21:09.623Z,5.97
2022-07-25T13:24:12.073Z,6.33
2022-07-25T13:27:14.225Z,5.80
2022-07-25T13:30:16.457Z,6.00
2022-07-25T13:33:19.039Z,6.15
2022-07-25T13:36:21.286Z,7.00
2022-07-25T13:39:23.329Z,6.27
2022-07-25T13:42:25.425Z,6.97
2022-07-25T13:45:27.531Z,8.98
2022-07-25T13:48:31.498Z,5.95
2022-07-25T13:51:33.859Z,7.07
2022-07-25T13:54:35.903Z,8.57
2022-07-25T13:57:37.916Z,5.43
2022-07-25T14:00:40.786Z,5.68
2022-07-25T14:03:42.831Z,6.03
2022-07-25T14:06:44.878Z,5.97
2022-07-25T14:09:46.904Z,7.20
2022-07-25T14:12:49.009Z,5.43
2022-07-25T14:15:51.101Z,5.85
2022-07-25T14:18:54.968Z,5.15
2022-07-25T14:21:57.090Z,7.20
2022-07-25T14:24:59.327Z,4.90
2022-07-25T14:28:01.666Z,6.20
2022-07-25T14:31:04.018Z,5.53
2022-07-25T14:34:06.089Z,6.40
2022-07-25T14:37:08.244Z,6.00
2022-07-25T14:40:11.657Z,5.80
2022-07-25T14:43:13.683Z,5.53
2022-07-25T14:46:15.887Z,5.80
2022-07-25T14:49:18.001Z,5.22
2022-07-25T14:52:20.144Z,5.30
2022-07-25T14:55:22.362Z,6.00
2022-07-25T14:58:24.816Z,5.47
2022-07-25T15:01:26.863Z,6.22
2022-07-25T15:04:28.958Z,5.05
2022-07-25T15:07:31.299Z,4.90
2022-07-25T15:10:33.689Z,5.27
2022-07-25T15:13:35.871Z,6.75
2022-07-25T15:16:38.782Z,5.80
2022-07-25T15:19:40.852Z,5.55
2022-07-25T15:22:42.803Z,5.67
2022-07-25T15:26:01.315Z,5.53
2022-07-25T15:29:11.163Z,6.65
2022-07-25T15:32:15.942Z,5.10
2022-07-25T15:35:18.183Z,6.88
2022-07-25T15:38:20.533Z,5.63
2022-07-25T15:41:22.613Z,6.17
2022-07-25T15:44:25.555Z,6.22
2022-07-25T15:47:27.712Z,6.57
2022-07-25T15:50:29.727Z,5.70
2022-07-25T15:53:31.716Z,6.60
2022-07-25T15:56:34.317Z,7.53
2022-07-25T15:59:36.378Z,5.47
2022-07-25T16:02:38.399Z,6.45
2022-07-25T16:05:41.309Z,6.05
2022-07-25T16:08:43.378Z,4.90
2022-07-25T16:11:59.476Z,5.83
2022-07-25T16:15:01.590Z,7.15
2022-07-25T16:18:03.704Z,7.45
2022-07-25T16:21:06.243Z,5.22
2022-07-25T16:24:10.611Z,8.20
2022-07-25T16:27:12.593Z,8.27
2022-07-25T16:30:14.963Z,7.07
2022-07-25T16:33:17.236Z,5.97
2022-07-25T16:36:19.426Z,8.98
2022-07-25T16:39:23.064Z,5.80
2022-07-25T16:42:25.098Z,5.30
2022-07-25T16:45:27.833Z,5.90
2022-07-25T16:48:30.594Z,5.55
2022-07-25T16:51:36.665Z,6.47
2022-07-25T16:54:39.209Z,6.17
2022-07-25T16:57:41.161Z,6.57
2022-07-25T17:00:43.294Z,8.55
2022-07-25T17:03:45.406Z,7.03
2022-07-25T17:06:47.504Z,8.63
2022-07-25T17:09:49.560Z,7.03
2022-07-25T17:12:51.533Z,4.90
2022-07-25T17:15:53.792Z,6.35
2022-07-25T17:18:55.817Z,6.57
2022-07-25T17:21:57.780Z,6.80
2022-07-25T17:24:59.794Z,5.43
2022-07-25T17:28:02.652Z,7.43
2022-07-25T17:31:04.824Z,5.03
2022-07-25T17:34:06.920Z,6.53
2022-07-25T17:37:08.877Z,5.50
2022-07-25T17:40:11.439Z,6.73
2022-07-25T17:43:13.376Z,6.17
2022-07-25T17:46:16.045Z,7.32
2022-07-25T17:49:18.330Z,5.65
2022-07-25T17:52:20.378Z,5.88
2022-07-25T17:55:22.386Z,5.50
2022-07-25T17:58:25.250Z,7.87
2022-07-25T18:01:27.444Z,10.88
2022-07-25T18:04:29.642Z,19.50
2022-07-25T18:07:31.804Z,13.57
2022-07-25T18:10:33.935Z,17.80
2022-07-25T18:13:36.055Z,21.10
2022-07-25T18:16:38.212Z,13.50
2022-07-25T18:19:40.318Z,12.77
2022-07-25T18:22:42.705Z,9.75
2022-07-25T18:25:45.341Z,9.23
2022-07-25T18:28:47.683Z,8.67
2022-07-25T18:31:50.379Z,12.57
2022-07-25T18:34:52.344Z,8.35
2022-07-25T18:37:54.636Z,11.27
2022-07-25T18:41:18.933Z,16.27
2022-07-25T18:44:19.517Z,14.70
2022-07-25T18:47:24.559Z,16.83
2022-07-25T18:50:27.902Z,18.70
2022-07-25T18:53:29.955Z,10.68
2022-07-25T18:56:32.191Z,18.87
2022-07-25T18:59:34.270Z,13.60
2022-07-25T19:02:36.810Z,17.17
2022-07-25T19:05:38.866Z,15.90
2022-07-25T19:08:41.290Z,14.18
2022-07-25T19:11:43.309Z,12.30
2022-07-25T19:14:45.265Z,13.63
2022-07-25T19:17:47.350Z,9.57
2022-07-25T19:20:49.924Z,13.38
2022-07-25T19:23:52.178Z,10.95
2022-07-25T19:26:54.260Z,15.37
2022-07-25T19:29:56.288Z,9.93
2022-07-25T19:32:58.354Z,12.50
2022-07-25T19:36:00.486Z,10.30
2022-07-25T19:39:03.182Z,8.48
2022-07-25T19:42:08.641Z,8.63
2022-07-25T19:45:11.229Z,10.53
2022-07-25T19:48:13.243Z,11.65
2022-07-25T19:51:15.348Z,16.73
2022-07-25T19:54:17.343Z,7.88
2022-07-25T19:57:19.463Z,12.63
2022-07-25T20:00:21.665Z,8.27
2022-07-25T20:03:23.853Z,9.70
2022-07-25T20:06:25.887Z,8.55
2022-07-25T20:09:29.868Z,11.80
2022-07-25T20:12:34.342Z,7.43
2022-07-25T20:15:37.007Z,12.90
2022-07-25T20:18:39.015Z,12.93
2022-07-25T20:21:41.098Z,10.57
2022-07-25T20:24:43.096Z,8.18
2022-07-25T20:27:45.078Z,13.27
2022-07-25T20:30:47.241Z,10.73
2022-07-25T20:33:49.300Z,8.90
2022-07-25T20:36:51.446Z,9.48
2022-07-25T20:39:53.547Z,9.68
2022-07-25T20:42:56.278Z,10.10
2022-07-25T20:45:58.450Z,7.47
2022-07-25T20:49:00.485Z,7.93
2022-07-25T20:52:02.497Z,12.35
2022-07-25T20:55:06.782Z,15.07
2022-07-25T20:58:09.210Z,11.17
2022-07-25T21:01:11.446Z,12.80
2022-07-25T21:04:13.659Z,9.80
2022-07-25T21:07:16.665Z,10.15
2022-07-25T21:10:18.953Z,10.68
2022-07-25T21:13:20.956Z,10.73
2022-07-25T21:16:22.947Z,8.30
2022-07-25T21:19:25.359Z,8.43
2022-07-25T21:22:27.815Z,7.57
2022-07-25T21:25:29.892Z,7.78
2022-07-25T21:28:31.872Z,9.87
2022-07-25T21:31:34.516Z,10.60
2022-07-25T21:34:36.562Z,8.35
2022-07-25T21:37:38.593Z,8.43
2022-07-25T21:40:40.885Z,6.97
2022-07-25T21:43:44.198Z,6.67
2022-07-25T21:46:46.195Z,6.07
2022-07-25T21:50:06.790Z,6.90
2022-07-25T21:53:11.199Z,6.88
2022-07-25T21:56:14.800Z,8.82
2022-07-25T21:59:16.854Z,9.03
2022-07-25T22:02:18.963Z,6.43
2022-07-25T22:05:21.313Z,8.60
2022-07-25T22:08:23.308Z,10.07
2022-07-25T22:11:42.683Z,8.68
2022-07-25T22:14:47.246Z,6.97
2022-07-25T22:17:50.288Z,8.90
2022-07-25T22:20:52.312Z,7.47
2022-07-25T22:23:54.351Z,9.35
2022-07-25T22:26:56.310Z,6.80
2022-07-25T22:29:58.267Z,7.80
2022-07-25T22:33:00.457Z,7.83
2022-07-25T22:36:02.556Z,6.10
2022-07-25T22:39:05.047Z,5.63
2022-07-25T22:42:07.317Z,6.68
2022-07-25T22:45:09.948Z,11.70
2022-07-25T22:48:12.196Z,6.53
2022-07-25T22:51:14.194Z,6.78
2022-07-25T22:54:16.245Z,7.63
2022-07-25T22:57:18.241Z,9.18
2022-07-25T23:00:20.212Z,6.47
2022-07-25T23:03:22.620Z,9.60
2022-07-25T23:06:24.758Z,8.68
2022-07-25T23:09:33.737Z,7.72
2022-07-25T23:12:38.744Z,8.38
2022-07-25T23:15:50.540Z,7.70
2022-07-25T23:18:57.222Z,6.67
2022-07-25T23:21:59.279Z,7.07
2022-07-25T23:25:01.407Z,6.57
2022-07-25T23:28:03.414Z,6.50
2022-07-25T23:31:05.502Z,7.20
2022-07-25T23:34:07.582Z,8.93
2022-07-25T23:37:10.260Z,8.70
2022-07-25T23:40:12.835Z,9.68
2022-07-25T23:43:15.150Z,7.28
2022-07-25T23:46:29.297Z,8.20
2022-07-25T23:49:33.214Z,7.73
2022-07-25T23:52:40.556Z,7.57
2022-07-25T23:55:42.535Z,6.43
2022-07-25T23:58:46.123Z,7.13
